Time;durP1;ratioP1;P1;durP2;ratioP2;P2;SDS_P1;SDS_P2;PMS_P1;PMS_P2;Temp;Humidity;BMP_temperature;BMP_pressure;BME280_temperature;BME280_humidity;BME280_pressure;Samples;Min_cycle;Max_cycle;Signal;HPM_P1;HPM_P2
2021/07/11 00:00:34;;;;;;;8.87;4.23;;;;;;;20.64;56.18;101165.97;5111892;28;20660;-61
2021/07/11 00:03:00;;;;;;;9.03;3.83;;;;;;;20.44;56.19;101151.81;5111476;28;20205;-61
2021/07/11 00:05:28;;;;;;;7.67;4.30;;;;;;;19.55;57.56;101049.47;5129037;27;20170;-62
2021/07/11 00:07:53;;;;;;;9.47;3.90;;;;;;;19.76;57.21;101107.34;5132540;27;20238;-61
2021/07/11 00:10:20;;;;;;;8.13;3.67;;;;;;;20.21;56.52;101160.38;5111564;28;20178;-61
2021/07/11 00:12:47;;;;;;;8.87;3.77;;;;;;;20.27;56.30;101164.81;5112032;28;20240;-62
2021/07/11 00:15:16;;;;;;;8.57;4.00;;;;;;;20.34;56.74;101172.88;5131238;27;20215;-61
2021/07/11 00:17:42;;;;;;;6.20;4.00;;;;;;;20.27;56.21;101162.00;5132611;27;20177;-61
2021/07/11 00:20:09;;;;;;;8.30;4.00;;;;;;;20.29;56.76;101158.69;5131727;27;20583;-61
2021/07/11 00:22:35;;;;;;;7.43;3.77;;;;;;;20.36;56.54;101161.16;5113965;27;20208;-61
2021/07/11 00:25:00;;;;;;;10.60;3.97;;;;;;;20.29;56.66;101161.50;5132657;27;20174;-62
2021/07/11 00:27:26;;;;;;;7.47;3.60;;;;;;;20.37;56.29;101154.25;5112134;28;20225;-62
2021/07/11 00:29:51;;;;;;;11.57;3.67;;;;;;;20.40;56.45;101156.06;5127121;27;20623;-62
2021/07/11 00:32:17;;;;;;;7.40;3.63;;;;;;;20.40;56.36;101159.69;5131353;27;20166;-62
2021/07/11 00:34:43;;;;;;;12.50;4.07;;;;;;;19.33;56.76;101026.53;5132520;27;20176;-62
2021/07/11 00:37:08;;;;;;;5.97;3.73;;;;;;;20.25;56.68;101158.13;5131629;27;20223;-61
2021/07/11 00:39:34;;;;;;;11.47;3.70;;;;;;;20.29;56.66;101162.31;5131921;27;20265;-61
2021/07/11 00:41:59;;;;;;;5.17;3.50;;;;;;;20.33;56.76;101160.06;5131309;27;20185;-62
2021/07/11 00:44:25;;;;;;;6.00;3.33;;;;;;;20.33;56.67;101159.28;5132338;27;20173;-61
2021/07/11 00:46:51;;;;;;;10.73;3.77;;;;;;;19.44;56.33;101019.09;5114027;27;20181;-61
2021/07/11 00:49:16;;;;;;;8.90;3.57;;;;;;;20.29;56.23;101162.31;5131972;27;20562;-61
2021/07/11 00:51:42;;;;;;;9.33;4.10;;;;;;;20.26;56.45;101156.88;5131419;27;20183;-61
2021/07/11 00:54:08;;;;;;;9.60;4.13;;;;;;;19.58;56.65;101068.16;5131540;27;20166;-62
2021/07/11 00:56:33;;;;;;;10.60;3.43;;;;;;;20.17;57.05;101166.16;5132296;27;20666;-61
2021/07/11 00:58:59;;;;;;;8.07;3.67;;;;;;;20.08;57.09;101168.31;5131884;27;20177;-61
2021/07/11 01:01:31;;;;;;;10.70;3.90;;;;;;;20.04;57.14;101159.25;5131916;27;20178;-61
2021/07/11 01:04:01;;;;;;;7.13;3.60;;;;;;;19.94;57.53;101169.84;5130975;27;20627;-62
2021/07/11 01:06:29;;;;;;;5.40;3.70;;;;;;;19.92;57.47;101177.19;5131966;27;20735;-61
2021/07/11 01:09:02;;;;;;;8.83;4.03;;;;;;;19.85;57.71;101169.16;5122453;27;20684;-62
2021/07/11 01:11:30;;;;;;;8.90;3.97;;;;;;;19.83;57.91;101177.28;5110668;28;20171;-61
2021/07/11 01:13:57;;;;;;;10.43;4.20;;;;;;;19.66;58.49;101162.88;5117576;27;20269;-61
2021/07/11 01:16:28;;;;;;;7.27;4.10;;;;;;;19.56;58.86;101172.69;5131463;27;20185;-61
2021/07/11 01:18:58;;;;;;;19.70;4.87;;;;;;;19.46;59.26;101174.00;5131684;27;20170;-61
2021/07/11 01:21:25;;;;;;;12.17;4.23;;;;;;;19.35;59.22;101159.69;5131373;27;20739;-61
2021/07/11 01:24:05;;;;;;;6.90;3.87;;;;;;;18.96;58.93;101099.09;5130789;27;20224;-62
2021/07/11 01:26:33;;;;;;;9.87;4.00;;;;;;;19.46;58.93;101165.56;5131023;27;20174;-61
2021/07/11 01:28:59;;;;;;;7.93;4.23;;;;;;;19.32;59.44;101152.25;5131279;27;20174;-61
2021/07/11 01:31:26;;;;;;;7.77;3.80;;;;;;;19.13;59.54;101164.84;5131522;27;20177;-61
2021/07/11 01:33:52;;;;;;;11.90;3.70;;;;;;;18.69;59.33;101112.53;5130844;28;20719;-61
2021/07/11 01:36:20;;;;;;;8.50;3.83;;;;;;;18.90;59.66;101150.78;5131468;28;20643;-61
2021/07/11 01:38:47;;;;;;;7.47;3.70;;;;;;;18.86;60.06;101165.00;5130845;28;20183;-61
2021/07/11 01:41:14;;;;;;;9.93;3.80;;;;;;;17.97;60.22;101062.31;5131078;28;20189;-61
2021/07/11 01:43:42;;;;;;;7.83;3.90;;;;;;;17.94;60.03;101038.78;5131036;28;20197;-61
2021/07/11 01:46:09;;;;;;;9.13;3.53;;;;;;;18.88;60.25;101176.53;5131016;28;20555;-62
2021/07/11 01:48:37;;;;;;;6.43;3.27;;;;;;;18.55;59.60;101116.81;5113215;28;20182;-61
2021/07/11 01:51:03;;;;;;;11.50;3.90;;;;;;;18.78;60.16;101174.25;5113397;28;20261;-61
2021/07/11 01:53:32;;;;;;;7.10;3.70;;;;;;;18.81;60.59;101170.47;5110327;28;20259;-61
2021/07/11 01:55:58;;;;;;;5.23;3.67;;;;;;;18.87;60.47;101169.34;5092227;28;20180;-61
2021/07/11 01:58:24;;;;;;;7.30;3.50;;;;;;;18.99;60.11;101171.16;5111098;28;20178;-61
2021/07/11 02:00:53;;;;;;;7.70;3.80;;;;;;;19.07;59.91;101175.16;5110726;28;20678;-61
2021/07/11 02:03:21;;;;;;;8.50;3.67;;;;;;;19.06;59.67;101173.63;5129189;28;20194;-62
2021/07/11 02:05:48;;;;;;;10.20;3.67;;;;;;;18.34;59.49;101075.75;5130707;28;20242;-61
2021/07/11 02:08:17;;;;;;;6.37;3.70;;;;;;;18.93;59.79;101166.69;5127603;28;20187;-61
2021/07/11 02:10:48;;;;;;;8.33;3.90;;;;;;;18.73;59.49;101153.19;5110564;28;20166;-61
2021/07/11 02:13:20;;;;;;;7.97;3.60;;;;;;;19.00;59.65;101166.31;5112132;28;20169;-61
2021/07/11 02:15:49;;;;;;;8.77;3.83;;;;;;;19.08;59.61;101170.34;5130489;28;20162;-61
2021/07/11 02:18:23;;;;;;;7.37;3.50;;;;;;;19.11;59.43;101175.78;5131071;28;20174;-62
2021/07/11 02:20:50;;;;;;;9.60;3.77;;;;;;;19.21;59.12;101173.69;5130979;28;20228;-62
2021/07/11 02:23:18;;;;;;;4.77;3.50;;;;;;;19.23;58.83;101168.38;5132461;27;20697;-61
2021/07/11 02:25:47;;;;;;;6.63;3.67;;;;;;;19.23;58.68;101177.59;5128500;27;20189;-61
2021/07/11 02:28:14;;;;;;;6.33;3.63;;;;;;;19.24;58.73;101178.38;5113926;28;20556;-61
2021/07/11 02:30:41;;;;;;;5.57;3.60;;;;;;;19.02;58.77;101141.34;5114380;28;20174;-61
2021/07/11 02:33:12;;;;;;;9.93;3.67;;;;;;;18.74;58.26;101089.41;5113867;28;20265;-62
2021/07/11 02:35:42;;;;;;;8.47;3.60;;;;;;;19.28;58.38;101184.56;5114506;28;20179;-61
2021/07/11 02:38:08;;;;;;;14.40;4.33;;;;;;;18.40;58.20;101059.03;5112810;28;20181;-62
2021/07/11 02:40:35;;;;;;;9.40;3.77;;;;;;;18.63;58.38;101080.75;5113294;27;20173;-61
2021/07/11 02:43:07;;;;;;;8.53;3.70;;;;;;;19.22;58.34;101187.28;5134235;27;20196;-61
2021/07/11 02:45:34;;;;;;;7.00;3.40;;;;;;;18.99;58.32;101181.63;5134839;27;20177;-61
2021/07/11 02:48:03;;;;;;;7.23;3.53;;;;;;;18.81;58.77;101179.69;5133929;27;20252;-61
2021/07/11 02:50:29;;;;;;;9.30;3.90;;;;;;;18.72;59.22;101195.81;5134437;27;20185;-61
2021/07/11 02:52:56;;;;;;;12.83;3.97;;;;;;;18.72;59.18;101202.19;5133997;27;20710;-61
2021/07/11 02:55:27;;;;;;;10.53;4.17;;;;;;;18.67;59.63;101190.84;5134664;27;20175;-61
2021/07/11 02:57:55;;;;;;;8.20;4.33;;;;;;;18.76;59.33;101207.63;5134184;27;20174;-61
2021/07/11 03:00:21;;;;;;;5.73;3.80;;;;;;;18.78;59.57;101205.13;5134095;27;20653;-61
2021/07/11 03:02:47;;;;;;;7.03;4.17;;;;;;;18.83;59.60;101213.69;5133925;27;20211;-61
2021/07/11 03:05:18;;;;;;;11.03;3.93;;;;;;;18.79;59.49;101210.25;5129044;27;20217;-61
2021/07/11 03:07:44;;;;;;;6.53;3.87;;;;;;;18.78;59.81;101219.94;5134167;27;20175;-61
2021/07/11 03:10:10;;;;;;;8.10;3.73;;;;;;;18.78;59.87;101216.38;5113506;27;20185;-61
2021/07/11 03:12:37;;;;;;;6.50;3.87;;;;;;;18.79;59.78;101223.53;5113406;28;20166;-62
2021/07/11 03:15:04;;;;;;;5.77;3.80;;;;;;;18.82;59.88;101226.16;5113504;28;20219;-61
2021/07/11 03:17:30;;;;;;;9.63;4.30;;;;;;;18.02;59.87;101106.53;5117282;27;20190;-61
2021/07/11 03:19:57;;;;;;;8.87;4.33;;;;;;;18.92;59.53;101235.31;5133151;27;20168;-61
2021/07/11 03:22:28;;;;;;;9.17;4.20;;;;;;;18.96;59.73;101244.34;5133761;27;20324;-61
2021/07/11 03:24:57;;;;;;;8.80;3.63;;;;;;;18.38;59.38;101154.91;5133951;27;20300;-61
2021/07/11 03:27:24;;;;;;;7.87;3.77;;;;;;;19.05;59.26;101242.31;5113475;27;20178;-61
2021/07/11 03:30:18;;;;;;;6.00;3.53;;;;;;;19.01;59.18;101244.50;5112358;28;20213;-61
2021/07/11 03:32:45;;;;;;;6.37;3.80;;;;;;;18.96;59.45;101235.94;5112803;28;20215;-61
2021/07/11 03:35:12;;;;;;;9.97;4.20;;;;;;;18.81;59.57;101235.06;5112782;28;20175;-61
2021/07/11 03:37:44;;;;;;;7.07;3.77;;;;;;;18.94;59.61;101239.22;5118690;27;20182;-61
2021/07/11 03:40:12;;;;;;;9.90;3.80;;;;;;;18.95;59.69;101252.03;5127683;27;20179;-62
2021/07/11 03:42:42;;;;;;;8.07;3.93;;;;;;;18.99;59.61;101244.19;5133050;27;20194;-61
2021/07/11 03:45:10;;;;;;;6.97;3.50;;;;;;;19.10;59.42;101244.47;5133247;27;20249;-61
2021/07/11 03:47:40;;;;;;;6.23;3.93;;;;;;;19.17;59.26;101246.13;5133587;27;20261;-61
2021/07/11 03:50:07;;;;;;;9.00;3.80;;;;;;;18.84;59.31;101195.56;5132527;27;20175;-62
2021/07/11 03:52:40;;;;;;;5.57;3.67;;;;;;;19.20;59.61;101248.78;5132965;27;20234;-61
2021/07/11 03:55:08;;;;;;;7.83;3.90;;;;;;;19.30;59.26;101252.34;5133313;27;20226;-61
2021/07/11 03:57:35;;;;;;;6.53;3.90;;;;;;;18.79;58.80;101167.38;5133163;27;20180;-61
2021/07/11 04:00:01;;;;;;;9.17;4.37;;;;;;;19.42;58.80;101259.75;5132852;27;20181;-61
2021/07/11 04:02:31;;;;;;;6.13;3.90;;;;;;;19.43;58.51;101262.09;5132207;27;20186;-61
2021/07/11 04:04:59;;;;;;;6.83;3.60;;;;;;;19.49;58.22;101262.22;5132964;27;20180;-61
2021/07/11 04:07:26;;;;;;;12.57;3.90;;;;;;;18.39;58.49;101077.13;5133140;27;20189;-62
2021/07/11 04:09:53;;;;;;;7.10;4.30;;;;;;;19.56;58.32;101259.03;5115554;27;20235;-61
2021/07/11 04:12:18;;;;;;;8.03;4.50;;;;;;;19.57;58.43;101254.97;5111016;28;20261;-62
2021/07/11 04:14:44;;;;;;;10.10;4.20;;;;;;;19.50;58.32;101246.91;5112454;28;20765;-61
2021/07/11 04:17:10;;;;;;;7.67;4.67;;;;;;;19.65;58.04;101259.75;5126543;27;20239;-61
2021/07/11 04:19:40;;;;;;;10.17;4.90;;;;;;;19.73;58.26;101272.19;5132650;27;20561;-61
2021/07/11 04:22:07;;;;;;;6.20;4.23;;;;;;;19.78;58.44;101267.94;5112980;27;20225;-61
2021/07/11 04:24:35;;;;;;;11.57;4.63;;;;;;;19.64;58.50;101229.28;5132813;27;20192;-61
2021/07/11 04:27:02;;;;;;;6.53;4.17;;;;;;;19.38;58.66;101184.06;5114984;27;20181;-61
2021/07/11 04:29:30;;;;;;;9.47;4.10;;;;;;;19.96;58.52;101268.56;5111737;28;20191;-61
2021/07/11 04:31:57;;;;;;;12.47;4.93;;;;;;;20.00;58.26;101277.59;5111326;28;20189;-62
2021/07/11 04:34:36;;;;;;;7.60;4.50;;;;;;;20.15;58.06;101278.44;5111715;28;20267;-61
2021/07/11 04:37:04;;;;;;;6.73;4.43;;;;;;;20.29;58.38;101286.16;5111428;28;20242;-61
2021/07/11 04:39:30;;;;;;;7.83;4.33;;;;;;;20.39;58.15;101284.81;5111628;28;20264;-61
2021/07/11 04:41:57;;;;;;;10.30;4.97;;;;;;;20.39;58.40;101287.63;5111419;28;20238;-61
2021/07/11 04:44:27;;;;;;;6.13;4.43;;;;;;;20.43;57.98;101281.78;5111085;28;20575;-61
2021/07/11 04:46:52;;;;;;;8.47;4.90;;;;;;;20.52;58.42;101290.16;5111367;28;20264;-62
2021/07/11 04:49:18;;;;;;;7.17;4.33;;;;;;;20.54;58.33;101274.34;5111608;28;20265;-61
2021/07/11 04:51:44;;;;;;;5.73;4.37;;;;;;;20.68;58.24;101278.41;5109479;28;20619;-61
2021/07/11 04:54:09;;;;;;;6.87;4.47;;;;;;;20.76;57.83;101285.97;5125737;27;20292;-61
2021/07/11 04:56:36;;;;;;;9.20;4.93;;;;;;;20.70;58.64;101284.31;5132215;27;20177;-61
2021/07/11 04:59:03;;;;;;;10.67;5.63;;;;;;;20.75;59.43;101286.44;5131947;27;20503;-61
2021/07/11 05:01:29;;;;;;;10.23;5.67;;;;;;;20.87;59.35;101282.56;5131837;27;20186;-61
2021/07/11 05:03:54;;;;;;;9.53;5.50;;;;;;;21.04;59.05;101275.19;5127338;27;20209;-62
2021/07/11 05:06:21;;;;;;;12.97;6.63;;;;;;;20.49;58.62;101167.22;5121994;27;20217;-61
2021/07/11 05:08:47;;;;;;;17.20;7.60;;;;;;;21.31;58.37;101272.78;5123723;27;20188;-61
2021/07/11 05:11:13;;;;;;;12.23;6.90;;;;;;;20.57;58.00;101134.59;5111177;28;20177;-61
2021/07/11 05:13:38;;;;;;;16.97;7.57;;;;;;;21.42;57.92;101243.97;5111029;28;20562;-61
2021/07/11 05:16:04;;;;;;;14.23;7.40;;;;;;;21.72;57.63;101270.81;5115779;27;20188;-61
2021/07/11 05:18:29;;;;;;;17.73;6.77;;;;;;;21.69;57.29;101252.81;5131985;27;20204;-61
2021/07/11 05:20:55;;;;;;;14.00;6.70;;;;;;;21.99;56.54;101265.50;5131598;27;20285;-61
2021/07/11 05:23:21;;;;;;;16.97;7.03;;;;;;;22.19;56.40;101273.16;5112882;27;20197;-61
2021/07/11 05:25:46;;;;;;;16.23;7.40;;;;;;;21.67;56.79;101190.47;5124394;27;20189;-61
2021/07/11 05:28:13;;;;;;;15.03;6.63;;;;;;;22.32;57.89;101273.56;5086795;28;20179;-61
2021/07/11 05:30:38;;;;;;;16.87;6.27;;;;;;;21.60;56.96;101130.88;5090507;28;20179;-61
2021/07/11 05:33:04;;;;;;;13.27;6.50;;;;;;;22.65;56.84;101274.69;5106921;28;20201;-61
2021/07/11 05:35:29;;;;;;;11.47;5.70;;;;;;;22.65;55.99;101271.88;5110845;28;20178;-62
2021/07/11 05:37:55;;;;;;;16.33;5.17;;;;;;;22.72;56.04;101285.53;5118811;28;20557;-62
2021/07/11 05:40:21;;;;;;;10.17;4.97;;;;;;;22.59;54.99;101234.31;5131078;28;20193;-62
2021/07/11 05:42:49;;;;;;;8.90;4.83;;;;;;;22.79;54.65;101267.38;5131145;28;20201;-62
2021/07/11 05:45:14;;;;;;;12.50;5.20;;;;;;;22.25;54.56;101178.00;5131159;28;20597;-61
2021/07/11 05:47:40;;;;;;;13.80;5.27;;;;;;;22.97;54.73;101270.59;5131194;28;20260;-61
2021/07/11 05:50:07;;;;;;;13.83;5.10;;;;;;;23.00;54.83;101269.59;5131241;28;20601;-62
2021/07/11 05:52:32;;;;;;;12.37;5.57;;;;;;;23.12;54.86;101270.44;5130921;28;20646;-62
2021/07/11 05:54:58;;;;;;;12.20;4.97;;;;;;;22.64;54.73;101154.50;5131468;28;20188;-61
2021/07/11 05:57:24;;;;;;;13.20;5.30;;;;;;;23.30;55.41;101272.91;5132934;27;20182;-62
2021/07/11 05:59:50;;;;;;;12.70;5.37;;;;;;;22.50;55.10;101113.03;5135368;27;20278;-62
2021/07/11 06:02:16;;;;;;;16.83;5.30;;;;;;;23.66;54.68;101267.22;5123999;27;20713;-61
2021/07/11 06:04:41;;;;;;;6.80;4.47;;;;;;;23.82;54.08;101272.16;5124737;27;20181;-61
2021/07/11 06:07:07;;;;;;;11.17;5.13;;;;;;;23.73;53.24;101232.75;5134801;27;20174;-62
2021/07/11 06:09:32;;;;;;;10.83;4.83;;;;;;;24.14;53.35;101278.47;5120395;27;20225;-62
2021/07/11 06:11:58;;;;;;;12.97;5.00;;;;;;;24.11;53.75;101260.44;5114645;28;20249;-62
2021/07/11 06:14:23;;;;;;;13.57;5.00;;;;;;;24.29;52.81;101281.84;5114727;28;20675;-62
2021/07/11 06:16:49;;;;;;;11.83;5.40;;;;;;;24.04;53.22;101280.75;5125669;27;20245;-61
2021/07/11 06:19:15;;;;;;;9.63;4.67;;;;;;;23.97;52.65;101280.47;5134822;27;20181;-61
2021/07/11 06:21:41;;;;;;;7.97;5.03;;;;;;;24.10;51.80;101286.47;5134820;27;20228;-62
2021/07/11 06:24:07;;;;;;;11.43;4.87;;;;;;;23.87;51.73;101228.16;5134484;27;20193;-61
2021/07/11 06:26:33;;;;;;;13.33;5.40;;;;;;;24.37;50.89;101283.69;5135061;27;20184;-61
2021/07/11 06:28:58;;;;;;;9.17;5.30;;;;;;;24.49;50.68;101273.16;5134320;27;20189;-61
2021/07/11 06:31:24;;;;;;;8.80;5.30;;;;;;;24.66;49.64;101285.31;5135052;27;20268;-62
2021/07/11 06:33:50;;;;;;;9.53;5.43;;;;;;;24.92;50.07;101268.84;5134718;27;20170;-62
2021/07/11 06:36:15;;;;;;;11.83;6.00;;;;;;;24.90;49.53;101268.56;5134731;27;20197;-61
2021/07/11 06:38:41;;;;;;;10.63;5.13;;;;;;;24.54;50.26;101205.16;5134245;27;20218;-62
2021/07/11 06:41:06;;;;;;;10.73;5.33;;;;;;;25.02;50.49;101267.28;5120576;27;20247;-61
2021/07/11 06:43:32;;;;;;;8.20;5.30;;;;;;;24.87;50.76;101261.84;5113563;28;20247;-62
2021/07/11 06:45:57;;;;;;;14.43;6.13;;;;;;;24.91;49.94;101264.44;5114392;28;20181;-62
2021/07/11 06:48:23;;;;;;;15.17;6.03;;;;;;;24.95;50.56;101254.38;5113709;28;20178;-62
2021/07/11 06:50:48;;;;;;;12.83;5.53;;;;;;;25.24;50.37;101258.72;5129296;27;20186;-62
2021/07/11 06:53:14;;;;;;;8.03;5.20;;;;;;;25.35;49.91;101261.56;5133798;27;20182;-62
2021/07/11 06:55:39;;;;;;;10.00;5.30;;;;;;;25.50;49.56;101257.16;5134607;27;20178;-62
2021/07/11 06:58:05;;;;;;;13.13;6.03;;;;;;;25.68;48.38;101259.41;5134472;27;20193;-62
2021/07/11 07:00:31;;;;;;;15.07;5.63;;;;;;;25.71;48.15;101263.25;5134186;27;20665;-62
2021/07/11 07:02:56;;;;;;;12.40;5.40;;;;;;;25.80;47.73;101258.06;5115287;27;20228;-62
2021/07/11 07:05:22;;;;;;;9.13;5.40;;;;;;;25.92;47.79;101262.44;5129085;27;20226;-62
2021/07/11 07:07:48;;;;;;;13.37;5.63;;;;;;;26.08;47.72;101255.13;5133783;27;20257;-62
2021/07/11 07:10:14;;;;;;;8.67;5.40;;;;;;;25.68;47.01;101207.53;5112439;28;20485;-62
2021/07/11 07:12:44;;;;;;;13.00;5.73;;;;;;;26.29;46.58;101262.75;5113104;28;20182;-62
2021/07/11 07:15:12;;;;;;;11.47;5.97;;;;;;;26.19;46.56;101250.16;5131066;27;20298;-62
2021/07/11 07:17:38;;;;;;;12.63;5.70;;;;;;;26.43;46.20;101255.16;5115025;27;20210;-62
2021/07/11 07:20:07;;;;;;;9.60;5.43;;;;;;;26.64;46.06;101262.78;5111572;28;20749;-62
2021/07/11 07:22:33;;;;;;;12.83;5.60;;;;;;;26.13;45.49;101140.69;5112254;28;20212;-62
2021/07/11 07:24:59;;;;;;;16.53;6.97;;;;;;;26.23;45.48;101137.00;5112529;28;20234;-62
2021/07/11 07:27:24;;;;;;;15.17;6.83;;;;;;;27.17;45.48;101255.59;5112635;28;20252;-62
2021/07/11 07:29:50;;;;;;;11.43;5.80;;;;;;;27.37;44.93;101270.16;5127127;27;20566;-62
2021/07/11 07:32:15;;;;;;;14.53;6.27;;;;;;;27.48;44.86;101270.03;5132525;27;20603;-61
2021/07/11 07:34:41;;;;;;;13.07;6.73;;;;;;;27.35;45.35;101263.47;5133265;27;20539;-62
2021/07/11 07:37:06;;;;;;;20.67;6.90;;;;;;;27.42;43.58;101257.94;5133447;27;20252;-62
2021/07/11 07:39:32;;;;;;;15.03;6.80;;;;;;;27.41;44.12;101259.25;5132835;27;20230;-62
2021/07/11 07:41:58;;;;;;;13.30;6.73;;;;;;;27.66;44.01;101257.94;5128344;27;20205;-61
2021/07/11 07:44:23;;;;;;;16.53;6.57;;;;;;;26.98;43.88;101163.72;5133466;27;20266;-62
2021/07/11 07:46:49;;;;;;;12.43;6.15;;;;;;;27.45;44.56;101242.66;5133551;27;20185;-62
2021/07/11 07:49:15;;;;;;;11.73;6.20;;;;;;;27.20;44.34;101150.06;5133206;27;20216;-62
2021/07/11 07:51:40;;;;;;;13.07;6.47;;;;;;;27.96;43.80;101260.69;5132847;27;20184;-62
2021/07/11 07:54:07;;;;;;;9.83;6.13;;;;;;;27.51;44.20;101220.56;5132912;27;20257;-62
2021/07/11 07:56:32;;;;;;;11.90;6.77;;;;;;;27.74;44.04;101256.00;5133613;27;20189;-62
2021/07/11 07:58:58;;;;;;;13.13;6.40;;;;;;;27.84;44.14;101240.09;5133452;27;20174;-62
2021/07/11 08:01:23;;;;;;;12.80;6.10;;;;;;;28.09;43.79;101244.44;5133052;27;20173;-62
2021/07/11 08:03:49;;;;;;;12.35;6.35;;;;;;;28.37;43.04;101249.72;5132220;27;20202;-62
2021/07/11 08:06:14;;;;;;;14.02;6.47;;;;;;;28.57;43.52;101249.19;5133081;27;20192;-62
2021/07/11 08:08:41;;;;;;;13.38;6.45;;;;;;;28.75;43.25;101251.22;5125713;27;20250;-62
2021/07/11 08:11:07;;;;;;;12.25;6.55;;;;;;;28.84;42.47;101242.25;5112450;28;20189;-62
2021/07/11 08:13:35;;;;;;;10.98;6.22;;;;;;;28.45;42.22;101151.66;5098071;27;20184;-62
2021/07/11 08:16:01;;;;;;;14.32;6.32;;;;;;;29.13;41.91;101239.16;5128377;27;20178;-62
2021/07/11 08:18:26;;;;;;;11.82;6.40;;;;;;;29.38;42.04;101249.06;5112476;28;20189;-62
2021/07/11 08:20:52;;;;;;;14.88;6.43;;;;;;;29.53;42.04;101246.41;5112121;28;20609;-62
2021/07/11 08:23:17;;;;;;;14.18;6.07;;;;;;;29.48;40.44;101240.84;5111341;28;20190;-62
2021/07/11 08:25:42;;;;;;;11.27;6.20;;;;;;;29.71;40.44;101239.09;5112395;28;20186;-62
2021/07/11 08:28:08;;;;;;;11.13;6.00;;;;;;;29.37;41.15;101204.69;5117345;27;20177;-62
2021/07/11 08:30:34;;;;;;;12.20;5.60;;;;;;;29.42;41.57;101183.81;5132735;27;20708;-62
2021/07/11 08:32:59;;;;;;;13.82;5.40;;;;;;;29.80;41.17;101238.63;5115929;27;20724;-62
2021/07/11 08:35:25;;;;;;;11.13;5.05;;;;;;;29.79;42.10;101237.84;5111504;28;20188;-62
2021/07/11 08:37:50;;;;;;;13.85;5.47;;;;;;;30.05;40.89;101237.81;5118013;27;20280;-62
2021/07/11 08:40:17;;;;;;;16.48;5.47;;;;;;;29.79;40.48;101212.16;5131657;27;20185;-62
2021/07/11 08:42:43;;;;;;;11.43;5.10;;;;;;;30.13;39.81;101241.56;5124864;27;20204;-62
2021/07/11 08:45:11;;;;;;;11.65;5.07;;;;;;;30.16;39.92;101205.38;5112322;27;20644;-62
2021/07/11 08:47:38;;;;;;;8.63;5.00;;;;;;;29.92;39.60;101240.72;5118063;27;20170;-62
2021/07/11 08:50:09;;;;;;;11.77;5.13;;;;;;;30.07;39.64;101234.41;5116362;27;20271;-62
2021/07/11 08:52:35;;;;;;;9.82;4.60;;;;;;;30.30;39.41;101233.34;5109341;28;20647;-62
2021/07/11 08:55:11;;;;;;;15.05;5.68;;;;;;;30.52;39.13;101230.00;5107455;28;20205;-62
2021/07/11 08:57:37;;;;;;;9.60;5.20;;;;;;;30.68;39.72;101223.09;5098994;28;20178;-62
2021/07/11 09:00:03;;;;;;;10.07;5.28;;;;;;;30.73;39.76;101216.47;5108424;28;20558;-62
2021/07/11 09:02:29;;;;;;;15.68;5.35;;;;;;;30.63;39.38;101218.25;5108548;28;20251;-62
2021/07/11 09:04:54;;;;;;;15.05;5.15;;;;;;;30.48;38.87;101206.69;5105188;27;20178;-62
2021/07/11 09:07:21;;;;;;;11.52;5.15;;;;;;;30.39;39.57;101209.22;5109017;28;20182;-61
2021/07/11 09:09:58;;;;;;;10.68;4.82;;;;;;;30.59;39.29;101212.13;5109440;28;20553;-62
2021/07/11 09:12:24;;;;;;;10.38;4.85;;;;;;;30.82;39.47;101204.50;5100731;28;20178;-62
2021/07/11 09:14:52;;;;;;;10.10;4.72;;;;;;;30.96;38.46;101205.22;5110564;27;20659;-62
2021/07/11 09:17:18;;;;;;;10.55;4.82;;;;;;;31.28;38.08;101202.81;5094308;28;20193;-62
2021/07/11 09:19:48;;;;;;;9.18;4.05;;;;;;;31.52;38.42;101203.13;5104411;28;20269;-63
2021/07/11 09:22:17;;;;;;;9.93;4.80;;;;;;;31.22;38.26;101116.28;5094542;28;20619;-62
2021/07/11 09:25:00;;;;;;;8.30;3.83;;;;;;;31.66;36.60;101192.31;5107117;28;20270;-62
2021/07/11 09:27:32;;;;;;;10.15;4.25;;;;;;;31.64;36.40;101189.25;5110335;27;20177;-62
2021/07/11 09:30:06;;;;;;;9.32;4.18;;;;;;;31.75;36.18;101188.94;5108826;28;20447;-63
2021/07/11 09:32:34;;;;;;;9.90;4.43;;;;;;;31.94;35.77;101192.28;5109690;28;20269;-62
2021/07/11 09:35:11;;;;;;;10.00;4.20;;;;;;;32.22;35.40;101184.31;5104917;28;20692;-62
2021/07/11 09:37:40;;;;;;;9.02;3.50;;;;;;;32.15;35.21;101181.44;5110923;28;20181;-62
2021/07/11 09:40:07;;;;;;;6.00;3.65;;;;;;;31.81;34.39;101124.38;5109578;28;20197;-63
2021/07/11 09:42:40;;;;;;;9.75;4.10;;;;;;;32.40;34.49;101174.59;5108588;28;20205;-62
2021/07/11 09:45:13;;;;;;;9.02;3.88;;;;;;;32.31;34.67;101175.19;5109229;28;20186;-63
2021/07/11 09:47:39;;;;;;;7.88;4.10;;;;;;;32.56;35.10;101176.16;5109200;28;20171;-62
2021/07/11 09:50:13;;;;;;;6.05;3.63;;;;;;;32.74;33.54;101180.75;5109498;28;20182;-63
2021/07/11 09:52:46;;;;;;;7.72;3.70;;;;;;;32.82;30.68;101164.34;5102323;28;20173;-63
2021/07/11 09:55:20;;;;;;;11.63;3.58;;;;;;;33.09;31.35;101174.06;5107902;28;20170;-62
2021/07/11 09:57:50;;;;;;;5.55;3.80;;;;;;;33.05;31.62;101167.16;5105902;28;20186;-62
2021/07/11 10:00:17;;;;;;;7.22;3.28;;;;;;;32.99;32.02;101160.84;5107050;28;20222;-62
2021/07/11 10:02:45;;;;;;;12.20;3.45;;;;;;;32.82;32.23;101135.63;5092615;28;20641;-63
2021/07/11 10:05:11;;;;;;;7.35;2.85;;;;;;;33.25;31.69;101158.31;5107496;28;20186;-62
2021/07/11 10:07:38;;;;;;;7.53;3.20;;;;;;;33.34;31.90;101165.59;5107822;28;20186;-62
2021/07/11 10:10:07;;;;;;;6.60;3.70;;;;;;;33.46;31.69;101158.84;5105948;28;20186;-62
2021/07/11 10:12:33;;;;;;;7.32;3.60;;;;;;;33.64;32.11;101149.03;5107562;28;20269;-62
2021/07/11 10:14:59;;;;;;;7.95;3.72;;;;;;;33.52;31.47;101145.03;5108652;28;20178;-62
2021/07/11 10:17:27;;;;;;;6.38;3.42;;;;;;;33.42;30.96;101146.25;5092207;28;20186;-62
2021/07/11 10:19:54;;;;;;;7.13;3.70;;;;;;;33.31;31.75;101129.41;5106863;28;20235;-62
2021/07/11 10:22:21;;;;;;;9.10;3.30;;;;;;;33.63;31.42;101135.97;5107184;28;20182;-62
2021/07/11 10:24:49;;;;;;;9.07;3.75;;;;;;;32.83;31.03;101076.88;5107756;28;20707;-62
2021/07/11 10:27:22;;;;;;;7.05;3.75;;;;;;;33.37;30.80;101135.72;5112130;28;20194;-63
2021/07/11 10:29:48;;;;;;;7.15;3.20;;;;;;;33.76;30.83;101132.88;5107653;28;20178;-63
2021/07/11 10:32:21;;;;;;;7.25;3.28;;;;;;;34.11;30.79;101140.34;5090415;28;20260;-63
2021/07/11 10:34:47;;;;;;;8.27;3.13;;;;;;;34.42;30.24;101130.19;5109016;28;20568;-63
2021/07/11 10:37:22;;;;;;;4.97;3.33;;;;;;;34.54;29.32;101125.47;5109117;28;20184;-63
2021/07/11 10:39:51;;;;;;;8.02;3.35;;;;;;;34.65;29.14;101119.22;5108398;28;20235;-62
2021/07/11 10:42:27;;;;;;;10.68;3.60;;;;;;;34.40;28.20;101111.97;5107706;28;20186;-62
2021/07/11 10:45:06;;;;;;;4.93;3.20;;;;;;;34.29;29.88;101133.34;5111196;28;20181;-63
2021/07/11 10:47:31;;;;;;;5.97;2.97;;;;;;;34.04;29.99;101126.78;5103031;28;20170;-62
2021/07/11 10:49:56;;;;;;;6.85;3.45;;;;;;;34.03;29.79;101119.50;5113532;27;20185;-62
2021/07/11 10:52:24;;;;;;;6.75;2.85;;;;;;;34.05;30.35;101122.56;5112187;27;20259;-62
2021/07/11 10:55:00;;;;;;;9.15;3.13;;;;;;;34.23;29.78;101118.41;5093991;28;20189;-61
2021/07/11 10:57:32;;;;;;;13.07;3.65;;;;;;;34.38;29.87;101112.56;5094606;28;20185;-62
2021/07/11 11:00:10;;;;;;;6.97;2.78;;;;;;;34.42;29.57;101109.25;5111283;28;20869;-62
2021/07/11 11:02:36;;;;;;;7.97;3.22;;;;;;;34.44;29.23;101098.69;5101145;27;20680;-62
2021/07/11 11:05:14;;;;;;;8.40;3.60;;;;;;;34.59;29.94;101117.94;5103305;28;20183;-62
2021/07/11 11:07:48;;;;;;;8.35;3.25;;;;;;;34.96;29.34;101111.09;5101180;28;20182;-62
2021/07/11 11:10:29;;;;;;;7.88;3.20;;;;;;;34.87;29.01;101112.53;5111412;28;20170;-62
2021/07/11 11:13:13;;;;;;;6.35;2.90;;;;;;;34.59;29.07;101103.53;5109388;28;20185;-62
2021/07/11 11:15:45;;;;;;;6.00;3.20;;;;;;;34.80;29.42;101106.84;5113976;27;20186;-63
2021/07/11 11:18:30;;;;;;;5.13;3.00;;;;;;;35.16;28.96;101101.28;5105106;28;20179;-62
2021/07/11 11:21:05;;;;;;;7.63;3.10;;;;;;;35.43;28.47;101099.22;5107683;28;20283;-63
2021/07/11 11:23:43;;;;;;;6.05;3.17;;;;;;;35.25;27.18;101089.84;5092873;28;20581;-62